Detall de PIREP

Printer-friendly versionPDF version

[2015/05/23 14:42:00]
Flight IATA:CT1062
Pilot Number:012
Company ICAO:CAT
Aircraft Type:DC85/A
PAX:132
Aircraft Registration:PAX
Departing Airport: LICJ
Destination Airport: LTBA
Alternate Airport:LTAC
Online: VATSIM
Route:PAL UL869 KRK UM600 TSL UM603 GOLDO UG12 EKI
Flight Level:F350
No Slew and time accel
No pause
Crash detect
Detect pilot in Cockpit between each 30 and 45 minutes
14:42 Zero fuel Weight: 169392 Lbs, Fuel Weight: 47537 Lbs
14:42 VATSIM:LICJ 231420Z 27017KT 9999 FEW030 19/13 Q1014
14:42 VATSIM:LTBA 231420Z VRB03KT CAVOK 28/11 Q1010 NOSIG
14:42 ALMOGAVERS ROUTE
14:58 Parking Brakes off
15:10 Take-off
15:10 Take off Weight: 215285 Lbs
15:10 Wind: 267º @ 016 Knots Heading: 245º
15:10 POS N38º 10´ 45´´ E013º 06´ 06´´
15:10 Gear Up: 172 Knots
15:10 Flaps:2 at 173 Knots
15:11 Flaps:1 at 192 Knots
15:11 Flaps:0 at 196 Knots
15:24 TOC
15:24 Fuel Weight: 41305 Lb
15:25 Wind:243º@044 Knots Heading: 074º Ground Speed: 472 Knots Altitude 34921 ft
15:40 Wind:229º@045 Knots Heading: 081º Ground Speed: 531 Knots Altitude 34954 ft
15:55 Wind:221º@046 Knots Heading: 082º Ground Speed: 528 Knots Altitude 34934 ft
16:10 Wind:221º@040 Knots Heading: 067º Ground Speed: 525 Knots Altitude 34829 ft
16:25 Wind:227º@032 Knots Heading: 083º Ground Speed: 523 Knots Altitude 34839 ft
16:31 TOD
16:31 Fuel Weight: 26399 Lb
16:40 Wind:244º@019 Knots Heading: 114º Ground Speed: 364 Knots Altitude 16597 ft
16:47 Flaps:1 at 211 Knots
16:47 Flaps:2 at 216 Knots
16:48 Flaps:3 at 183 Knots
16:48 Flaps:4 at 164 Knots
16:48 Gear Down: 164 Knots
16:49 Flaps:5 at 141 Knots
16:49 Flaps:4 at 139 Knots
16:52 TouchDown:Rate -341 ft/min Speed: 121 Knots
16:52 VATSIM:LTBA 231620Z VRB05KT CAVOK 25/15 Q1010 NOSIG
16:52 Land
16:52 Wind:355º@005 Knots
16:52 Heading: 055º
16:52 Flight Duration: 01:42
16:52 Landing Weight: 193745 Lbs
16:52 POS N40º 58´ 22´´ E028º 49´ 34´´
16:58 Parking brakes on
16:58 Block to Block Duration: 02:00
16:58 Final Fuel: 23811 Lbls
16:58 Spent Fuel: 23725 Lbls
16:58 Flight Length: 789 NM
16:58 TOD Land Length: 116 NM

Exportar CSV

Powered by Drupal - Modified by Danger4k